Time,TemperatureF,DewpointF,PressureIn,WindDirection,WindDirectionDegrees,WindSpeedMPH,WindSpeedGustMPH,Humidity,HourlyPrecipIn,Conditions,Clouds,dailyrainin,SoftwareType,DateUTC
2013-07-12 00:02:00,57.0,20.0,29.81,SSW,206,3.0,5.0,23,0.00,,,0.00,,2013-07-12 07:02:00,
2013-07-12 00:11:00,56.0,21.0,29.81,SSW,202,3.0,5.0,25,0.00,,,0.00,,2013-07-12 07:11:00,
2013-07-12 00:22:00,56.0,21.0,29.81,SSW,202,3.0,5.0,25,0.00,,,0.00,,2013-07-12 07:22:00,
2013-07-12 00:32:00,55.0,17.0,29.81,SSW,202,3.0,5.0,22,0.00,,,0.00,,2013-07-12 07:32:00,
2013-07-12 00:52:00,56.0,18.0,29.81,South,186,3.0,6.0,22,0.00,,,0.00,,2013-07-12 07:52:00,
2013-07-12 01:01:00,56.0,18.0,29.84,SSW,206,3.0,6.0,22,0.00,,,0.00,,2013-07-12 08:01:00,
2013-07-12 01:11:00,56.0,18.0,29.84,South,186,3.0,5.0,22,0.00,,,0.00,,2013-07-12 08:11:00,
2013-07-12 01:21:00,56.0,18.0,29.84,South,186,3.0,5.0,22,0.00,,,0.00,,2013-07-12 08:21:00,
2013-07-12 01:32:00,55.0,18.0,29.81,South,176,2.0,3.0,23,0.00,,,0.00,,2013-07-12 08:32:00,
2013-07-12 01:42:00,54.0,17.0,29.81,South,191,3.0,5.0,23,0.00,,,0.00,,2013-07-12 08:42:00,
2013-07-12 01:53:00,53.0,18.0,29.81,SSW,202,3.0,5.0,25,0.00,,,0.00,,2013-07-12 08:53:00,
2013-07-12 02:02:00,53.0,19.0,29.81,South,185,2.0,5.0,26,0.00,,,0.00,,2013-07-12 09:02:00,
2013-07-12 02:12:00,53.0,19.0,29.81,SSE,165,2.0,5.0,26,0.00,,,0.00,,2013-07-12 09:12:00,
2013-07-12 02:22:00,53.0,19.0,29.81,South,185,2.0,5.0,26,0.00,,,0.00,,2013-07-12 09:22:00,
2013-07-12 02:32:00,53.0,19.0,29.84,SSW,194,2.0,2.0,26,0.00,,,0.00,,2013-07-12 09:32:00,
2013-07-12 02:42:00,53.0,19.0,29.84,South,191,2.0,2.0,26,0.00,,,0.00,,2013-07-12 09:42:00,
2013-07-12 02:52:00,53.0,19.0,29.81,SSW,202,1.0,2.0,26,0.00,,,0.00,,2013-07-12 09:52:00,
2013-07-12 03:01:00,53.0,19.0,29.84,South,191,1.0,2.0,26,0.00,,,0.00,,2013-07-12 10:01:00,
2013-07-12 03:11:00,53.0,19.0,29.84,West,261,1.0,2.0,26,0.00,,,0.00,,2013-07-12 10:11:00,
2013-07-12 03:22:00,53.0,20.0,29.84,WSW,241,1.0,5.0,27,0.00,,,0.00,,2013-07-12 10:22:00,
2013-07-12 03:33:00,53.0,20.0,29.84,West,260,3.0,7.0,27,0.00,,,0.00,,2013-07-12 10:33:00,
2013-07-12 03:42:00,52.0,19.0,29.84,West,261,2.0,5.0,27,0.00,,,0.00,,2013-07-12 10:42:00,
2013-07-12 03:52:00,52.0,19.0,29.84,West,261,2.0,5.0,27,0.00,,,0.00,,2013-07-12 10:52:00,
2013-07-12 04:02:00,51.0,18.0,29.84,South,173,1.0,2.0,27,0.00,,,0.00,,2013-07-12 11:02:00,
2013-07-12 04:11:00,50.0,17.0,29.84,South,169,2.0,3.0,27,0.00,,,0.00,,2013-07-12 11:11:00,
2013-07-12 04:22:00,49.0,16.0,29.84,SSE,155,2.0,3.0,27,0.00,,,0.00,,2013-07-12 11:22:00,
2013-07-12 04:32:00,47.0,15.0,29.84,SSE,155,2.0,3.0,27,0.00,,,0.00,,2013-07-12 11:32:00,
2013-07-12 04:43:00,48.0,16.0,29.84,SW,229,2.0,2.0,28,0.00,,,0.00,,2013-07-12 11:43:00,
2013-07-12 04:52:00,49.0,17.0,29.84,South,170,2.0,3.0,28,0.00,,,0.00,,2013-07-12 11:52:00,
2013-07-12 05:01:00,49.0,17.0,29.84,South,171,2.0,3.0,28,0.00,,,0.00,,2013-07-12 12:01:00,
2013-07-12 05:11:00,49.0,17.0,29.84,South,171,2.0,3.0,28,0.00,,,0.00,,2013-07-12 12:11:00,
2013-07-12 05:22:00,49.0,17.0,29.84,South,171,2.0,3.0,28,0.00,,,0.00,,2013-07-12 12:22:00,
2013-07-12 05:32:00,48.0,17.0,29.84,SSW,202,1.0,2.0,29,0.00,,,0.00,,2013-07-12 12:32:00,
2013-07-12 05:43:00,48.0,17.0,29.84,SSW,202,1.0,2.0,29,0.00,,,0.00,,2013-07-12 12:43:00,
2013-07-12 05:52:00,49.0,21.0,29.84,West,265,2.0,2.0,33,0.00,,,0.00,,2013-07-12 12:52:00,
2013-07-12 06:01:00,49.0,22.0,29.84,SSW,211,0.0,1.0,34,0.00,,,0.00,,2013-07-12 13:01:00,
2013-07-12 06:11:00,50.0,24.0,29.84,West,271,2.0,3.0,36,0.00,,,0.00,,2013-07-12 13:11:00,
2013-07-12 06:43:00,53.0,27.0,29.84,WNW,288,2.0,5.0,36,0.00,,,0.00,,2013-07-12 13:43:00,
2013-07-12 06:53:00,53.0,27.0,29.84,WNW,288,2.0,5.0,36,0.00,,,0.00,,2013-07-12 13:53:00,
2013-07-12 07:02:00,55.0,28.0,29.84,West,265,2.0,3.0,35,0.00,,,0.00,,2013-07-12 14:02:00,
2013-07-12 07:11:00,56.0,29.0,29.84,WNW,288,3.0,5.0,35,0.00,,,0.00,,2013-07-12 14:11:00,
2013-07-12 07:32:00,58.0,28.0,29.84,West,270,3.0,5.0,31,0.00,,,0.00,,2013-07-12 14:32:00,
2013-07-12 08:01:00,60.0,26.0,29.84,WSW,256,3.0,7.0,27,0.00,,,0.00,,2013-07-12 15:01:00,
2013-07-12 08:11:00,62.0,27.0,29.84,West,278,5.0,7.0,26,0.00,,,0.00,,2013-07-12 15:11:00,
2013-07-12 08:22:00,62.0,27.0,29.84,West,278,5.0,7.0,26,0.00,,,0.00,,2013-07-12 15:22:00,
2013-07-12 08:33:00,61.0,25.0,29.84,WSW,249,5.0,8.0,25,0.00,,,0.00,,2013-07-12 15:33:00,
2013-07-12 08:52:00,63.0,26.0,29.81,WNW,291,5.0,8.0,24,0.00,,,0.00,,2013-07-12 15:52:00,
2013-07-12 09:01:00,64.0,26.0,29.84,West,273,5.0,9.0,24,0.00,,,0.00,,2013-07-12 16:01:00,
2013-07-12 09:11:00,65.0,26.0,29.84,WNW,293,6.0,8.0,23,0.00,,,0.00,,2013-07-12 16:11:00,
2013-07-12 09:22:00,64.0,25.0,29.84,WNW,296,5.0,9.0,23,0.00,,,0.00,,2013-07-12 16:22:00,
2013-07-12 09:42:00,65.0,26.0,29.81,WNW,287,7.0,9.0,23,0.00,,,0.00,,2013-07-12 16:42:00,
2013-07-12 10:02:00,64.0,25.0,29.84,WNW,291,6.0,12.0,23,0.00,,,0.00,,2013-07-12 17:02:00,
2013-07-12 10:12:00,64.0,25.0,29.84,WNW,291,6.0,12.0,23,0.00,,,0.00,,2013-07-12 17:12:00,
2013-07-12 10:22:00,65.0,26.0,29.84,NW,321,5.0,9.0,23,0.00,,,0.00,,2013-07-12 17:22:00,
2013-07-12 10:33:00,66.0,27.0,29.81,NNW,338,6.0,10.0,23,0.00,,,0.00,,2013-07-12 17:33:00,
2013-07-12 10:43:00,67.0,27.0,29.81,WNW,284,6.0,10.0,22,0.00,,,0.00,,2013-07-12 17:43:00,
2013-07-12 11:02:00,67.0,27.0,29.81,NNW,338,3.0,10.0,22,0.00,,,0.00,,2013-07-12 18:02:00,
2013-07-12 11:12:00,69.0,26.0,29.81,NW,306,5.0,8.0,20,0.00,,,0.00,,2013-07-12 18:12:00,
2013-07-12 11:33:00,71.0,24.0,29.81,NW,310,4.0,7.0,17,0.00,,,0.00,,2013-07-12 18:33:00,
2013-07-12 11:44:00,71.0,24.0,29.81,NW,312,4.0,7.0,17,0.00,,,0.00,,2013-07-12 18:44:00,
2013-07-12 11:52:00,72.0,23.0,29.81,North,6,3.0,8.0,16,0.00,,,0.00,,2013-07-12 18:52:00,
2013-07-12 12:11:00,72.0,27.0,29.81,NW,305,3.0,9.0,19,0.00,,,0.00,,2013-07-12 19:11:00,
2013-07-12 12:22:00,73.0,24.0,29.81,NNW,331,5.0,10.0,16,0.00,,,0.00,,2013-07-12 19:22:00,
2013-07-12 12:32:00,73.0,24.0,29.81,NW,308,6.0,10.0,16,0.00,,,0.00,,2013-07-12 19:32:00,
2013-07-12 12:44:00,73.0,24.0,29.81,WNW,300,7.0,12.0,16,0.00,,,0.00,,2013-07-12 19:44:00,
2013-07-12 12:53:00,73.0,24.0,29.81,WNW,300,7.0,12.0,16,0.00,,,0.00,,2013-07-12 19:53:00,
2013-07-12 13:01:00,73.0,24.0,29.81,North,9,6.0,8.0,16,0.00,,,0.00,,2013-07-12 20:01:00,
2013-07-12 13:11:00,73.0,23.0,29.81,NW,317,6.0,9.0,15,0.00,,,0.00,,2013-07-12 20:11:00,
2013-07-12 13:22:00,74.0,20.0,29.81,NNW,327,6.0,12.0,13,0.00,,,0.00,,2013-07-12 20:22:00,
2013-07-12 13:33:00,74.0,20.0,29.81,NNW,327,6.0,12.0,13,0.00,,,0.00,,2013-07-12 20:33:00,
2013-07-12 13:53:00,76.0,22.0,29.81,West,275,7.0,12.0,13,0.00,,,0.00,,2013-07-12 20:53:00,
2013-07-12 14:02:00,76.0,22.0,29.81,WNW,286,6.0,14.0,13,0.00,,,0.00,,2013-07-12 21:02:00,
2013-07-12 14:12:00,76.0,22.0,29.81,WNW,283,9.0,14.0,13,0.00,,,0.00,,2013-07-12 21:12:00,
2013-07-12 14:33:00,77.0,22.0,29.81,WNW,292,7.0,13.0,13,0.00,,,0.00,,2013-07-12 21:33:00,
2013-07-12 14:42:00,77.0,26.0,29.78,West,266,7.0,15.0,15,0.00,,,0.00,,2013-07-12 21:42:00,
2013-07-12 14:53:00,77.0,26.0,29.81,WNW,283,9.0,15.0,15,0.00,,,0.00,,2013-07-12 21:53:00,
2013-07-12 15:02:00,78.0,27.0,29.81,NW,307,8.0,13.0,15,0.00,,,0.00,,2013-07-12 22:02:00,
2013-07-12 15:12:00,78.0,27.0,29.81,NW,307,8.0,13.0,15,0.00,,,0.00,,2013-07-12 22:12:00,
2013-07-12 15:22:00,77.0,26.0,29.81,SW,232,6.0,14.0,15,0.00,,,0.00,,2013-07-12 22:22:00,
2013-07-12 15:33:00,78.0,27.0,29.81,South,181,3.0,13.0,15,0.00,,,0.00,,2013-07-12 22:33:00,
2013-07-12 15:43:00,78.0,27.0,29.78,West,270,10.0,17.0,15,0.00,,,0.00,,2013-07-12 22:43:00,
2013-07-12 15:52:00,79.0,27.0,29.78,West,275,6.0,14.0,15,0.00,,,0.00,,2013-07-12 22:52:00,
2013-07-12 16:02:00,79.0,27.0,29.81,WNW,292,7.0,13.0,15,0.00,,,0.00,,2013-07-12 23:02:00,
2013-07-12 16:11:00,79.0,27.0,29.81,WNW,292,7.0,13.0,15,0.00,,,0.00,,2013-07-12 23:11:00,
2013-07-12 16:32:00,79.0,27.0,29.78,NW,317,10.0,15.0,15,0.00,,,0.00,,2013-07-12 23:32:00,
2013-07-12 16:53:00,78.0,27.0,29.78,NW,312,10.0,16.0,15,0.00,,,0.00,,2013-07-12 23:53:00,
2013-07-12 17:22:00,78.0,27.0,29.78,NNW,327,7.0,12.0,15,0.00,,,0.00,,2013-07-13 00:22:00,
2013-07-12 17:32:00,75.0,26.0,29.78,NNW,330,9.0,15.0,16,0.00,,,0.00,,2013-07-13 00:32:00,
2013-07-12 17:43:00,75.0,29.0,29.78,NW,320,13.0,17.0,18,0.00,,,0.00,,2013-07-13 00:43:00,
2013-07-12 17:52:00,74.0,28.0,29.78,NNW,340,11.0,15.0,18,0.00,,,0.00,,2013-07-13 00:52:00,
2013-07-12 18:02:00,74.0,28.0,29.81,NNW,337,9.0,13.0,18,0.00,,,0.00,,2013-07-13 01:02:00,
2013-07-12 18:21:00,73.0,31.0,29.81,NW,320,11.0,15.0,21,0.00,,,0.00,,2013-07-13 01:21:00,
2013-07-12 18:32:00,72.0,31.0,29.81,NNW,343,10.0,21.0,22,0.00,,,0.00,,2013-07-13 01:32:00,
2013-07-12 18:43:00,72.0,32.0,29.81,NNW,338,13.0,15.0,23,0.00,,,0.00,,2013-07-13 01:43:00,
2013-07-12 19:02:00,70.0,32.0,29.81,NW,312,11.0,15.0,24,0.00,,,0.00,,2013-07-13 02:02:00,
2013-07-12 19:11:00,69.0,31.0,29.81,NW,313,12.0,15.0,24,0.00,,,0.00,,2013-07-13 02:11:00,
2013-07-12 19:22:00,69.0,30.0,29.81,NW,310,10.0,14.0,23,0.00,,,0.00,,2013-07-13 02:22:00,
2013-07-12 19:33:00,69.0,30.0,29.81,NW,310,10.0,14.0,23,0.00,,,0.00,,2013-07-13 02:33:00,
2013-07-12 19:42:00,67.0,29.0,29.84,WNW,292,7.0,13.0,24,0.00,,,0.00,,2013-07-13 02:42:00,
2013-07-12 20:02:00,65.0,27.0,29.84,WNW,298,9.0,13.0,24,0.00,,,0.00,,2013-07-13 03:02:00,
2013-07-12 20:12:00,65.0,27.0,29.84,WNW,298,9.0,13.0,24,0.00,,,0.00,,2013-07-13 03:12:00,
2013-07-12 20:22:00,65.0,27.0,29.84,WNW,298,9.0,13.0,24,0.00,,,0.00,,2013-07-13 03:22:00,
2013-07-12 20:33:00,63.0,27.0,29.84,NNW,329,6.0,10.0,25,0.00,,,0.00,,2013-07-13 03:33:00,
2013-07-12 20:43:00,63.0,28.0,29.84,WNW,292,5.0,8.0,26,0.00,,,0.00,,2013-07-13 03:43:00,
2013-07-12 20:56:00,62.0,27.0,29.87,NNW,334,2.0,6.0,26,0.00,,,0.00,,2013-07-13 03:56:00,
2013-07-12 21:01:00,61.0,27.0,29.87,NW,305,1.0,3.0,27,0.00,,,0.00,,2013-07-13 04:01:00,
2013-07-12 21:11:00,61.0,27.0,29.87,NW,305,1.0,3.0,27,0.00,,,0.00,,2013-07-13 04:11:00,
2013-07-12 21:32:00,59.0,26.0,29.87,North,3,2.0,5.0,28,0.00,,,0.00,,2013-07-13 04:32:00,
2013-07-12 22:01:00,58.0,27.0,29.90,North,3,3.0,6.0,30,0.00,,,0.00,,2013-07-13 05:01:00,
2013-07-12 22:11:00,58.0,27.0,29.90,North,3,3.0,6.0,30,0.00,,,0.00,,2013-07-13 05:11:00,
2013-07-12 22:21:00,58.0,31.0,29.90,North,357,5.0,7.0,35,0.00,,,0.00,,2013-07-13 05:21:00,
2013-07-12 22:32:00,58.0,31.0,29.90,NNW,338,5.0,8.0,36,0.00,,,0.00,,2013-07-13 05:32:00,
2013-07-12 22:42:00,56.0,30.0,29.90,North,359,3.0,5.0,37,0.00,,,0.00,,2013-07-13 05:42:00,
2013-07-12 22:52:00,56.0,31.0,29.90,NNE,14,2.0,3.0,38,0.00,,,0.00,,2013-07-13 05:52:00,
2013-07-12 23:01:00,55.0,31.0,29.90,West,281,2.0,3.0,39,0.00,,,0.00,,2013-07-13 06:01:00,
2013-07-12 23:11:00,55.0,31.0,29.90,West,281,2.0,3.0,39,0.00,,,0.00,,2013-07-13 06:11:00,
2013-07-12 23:22:00,54.0,28.0,29.90,SSE,158,1.0,3.0,37,0.00,,,0.00,,2013-07-13 06:22:00,
2013-07-12 23:32:00,52.0,27.0,29.90,ESE,112,2.0,2.0,37,0.00,,,0.00,,2013-07-13 06:32:00,